sensor_id;sensor_type;location;lat;lon;timestamp;P1;durP1;ratioP1;P2;durP2;ratioP2
79468;SDS011;68936;52.526;13.326;2023-04-26T00:01:52;9.73;;;3.53;;
79468;SDS011;68936;52.526;13.326;2023-04-26T00:04:21;12.50;;;4.15;;
79468;SDS011;68936;52.526;13.326;2023-04-26T00:06:47;11.50;;;3.90;;
79468;SDS011;68936;52.526;13.326;2023-04-26T00:09:14;8.50;;;3.97;;
79468;SDS011;68936;52.526;13.326;2023-04-26T00:11:40;10.93;;;3.95;;
79468;SDS011;68936;52.526;13.326;2023-04-26T00:14:08;13.32;;;4.47;;
79468;SDS011;68936;52.526;13.326;2023-04-26T00:16:35;10.77;;;4.47;;
79468;SDS011;68936;52.526;13.326;2023-04-26T00:19:01;10.60;;;4.22;;
79468;SDS011;68936;52.526;13.326;2023-04-26T00:21:28;9.50;;;4.28;;
79468;SDS011;68936;52.526;13.326;2023-04-26T00:23:56;8.43;;;3.80;;
79468;SDS011;68936;52.526;13.326;2023-04-26T00:26:22;10.48;;;4.45;;
79468;SDS011;68936;52.526;13.326;2023-04-26T00:28:50;12.60;;;4.85;;
79468;SDS011;68936;52.526;13.326;2023-04-26T00:31:19;11.82;;;3.92;;
79468;SDS011;68936;52.526;13.326;2023-04-26T00:33:45;9.15;;;4.05;;
79468;SDS011;68936;52.526;13.326;2023-04-26T00:36:11;9.50;;;4.38;;
79468;SDS011;68936;52.526;13.326;2023-04-26T00:38:43;9.48;;;3.90;;
79468;SDS011;68936;52.526;13.326;2023-04-26T00:41:09;9.73;;;4.03;;
79468;SDS011;68936;52.526;13.326;2023-04-26T00:43:35;10.48;;;4.05;;
79468;SDS011;68936;52.526;13.326;2023-04-26T00:46:04;7.35;;;3.70;;
79468;SDS011;68936;52.526;13.326;2023-04-26T00:48:30;11.13;;;4.07;;
79468;SDS011;68936;52.526;13.326;2023-04-26T00:50:56;12.20;;;4.25;;
79468;SDS011;68936;52.526;13.326;2023-04-26T00:53:24;10.63;;;3.60;;
79468;SDS011;68936;52.526;13.326;2023-04-26T00:55:50;9.07;;;3.50;;
79468;SDS011;68936;52.526;13.326;2023-04-26T00:58:17;10.75;;;4.18;;
79468;SDS011;68936;52.526;13.326;2023-04-26T01:00:43;8.05;;;3.40;;
79468;SDS011;68936;52.526;13.326;2023-04-26T01:03:09;7.82;;;3.92;;
79468;SDS011;68936;52.526;13.326;2023-04-26T01:05:38;9.27;;;4.43;;
79468;SDS011;68936;52.526;13.326;2023-04-26T01:08:04;9.52;;;3.85;;
79468;SDS011;68936;52.526;13.326;2023-04-26T01:10:33;10.35;;;4.38;;
79468;SDS011;68936;52.526;13.326;2023-04-26T01:12:59;8.30;;;3.80;;
79468;SDS011;68936;52.526;13.326;2023-04-26T01:15:26;9.25;;;4.15;;
79468;SDS011;68936;52.526;13.326;2023-04-26T01:17:54;8.70;;;3.90;;
79468;SDS011;68936;52.526;13.326;2023-04-26T01:20:22;9.27;;;4.05;;
79468;SDS011;68936;52.526;13.326;2023-04-26T01:22:50;9.13;;;4.07;;
79468;SDS011;68936;52.526;13.326;2023-04-26T01:25:16;8.35;;;4.38;;
79468;SDS011;68936;52.526;13.326;2023-04-26T01:27:45;10.50;;;4.10;;
79468;SDS011;68936;52.526;13.326;2023-04-26T01:30:11;9.93;;;3.55;;
79468;SDS011;68936;52.526;13.326;2023-04-26T01:32:39;9.05;;;3.85;;
79468;SDS011;68936;52.526;13.326;2023-04-26T01:35:05;10.32;;;3.83;;
79468;SDS011;68936;52.526;13.326;2023-04-26T01:37:32;7.93;;;4.05;;
79468;SDS011;68936;52.526;13.326;2023-04-26T01:39:58;8.65;;;4.25;;
79468;SDS011;68936;52.526;13.326;2023-04-26T01:42:24;8.55;;;3.72;;
79468;SDS011;68936;52.526;13.326;2023-04-26T01:44:50;7.93;;;3.75;;
79468;SDS011;68936;52.526;13.326;2023-04-26T01:47:16;8.02;;;3.67;;
79468;SDS011;68936;52.526;13.326;2023-04-26T01:49:42;7.43;;;3.13;;
79468;SDS011;68936;52.526;13.326;2023-04-26T01:52:08;7.13;;;3.47;;
79468;SDS011;68936;52.526;13.326;2023-04-26T01:54:36;9.20;;;4.05;;
79468;SDS011;68936;52.526;13.326;2023-04-26T01:57:05;6.38;;;3.17;;
79468;SDS011;68936;52.526;13.326;2023-04-26T01:59:31;8.20;;;3.75;;
79468;SDS011;68936;52.526;13.326;2023-04-26T02:01:59;8.88;;;3.78;;
79468;SDS011;68936;52.526;13.326;2023-04-26T02:04:26;7.63;;;3.58;;
79468;SDS011;68936;52.526;13.326;2023-04-26T02:06:52;7.80;;;3.78;;
79468;SDS011;68936;52.526;13.326;2023-04-26T02:09:18;10.80;;;3.83;;
79468;SDS011;68936;52.526;13.326;2023-04-26T02:11:44;6.20;;;3.58;;
79468;SDS011;68936;52.526;13.326;2023-04-26T02:14:10;7.15;;;3.60;;
79468;SDS011;68936;52.526;13.326;2023-04-26T02:16:37;6.47;;;3.38;;
79468;SDS011;68936;52.526;13.326;2023-04-26T02:19:04;9.30;;;4.05;;
79468;SDS011;68936;52.526;13.326;2023-04-26T02:21:48;7.75;;;3.60;;
79468;SDS011;68936;52.526;13.326;2023-04-26T02:24:15;6.63;;;3.80;;
79468;SDS011;68936;52.526;13.326;2023-04-26T02:26:41;7.40;;;3.83;;
79468;SDS011;68936;52.526;13.326;2023-04-26T02:29:07;7.28;;;3.55;;
79468;SDS011;68936;52.526;13.326;2023-04-26T02:31:33;7.10;;;3.60;;
79468;SDS011;68936;52.526;13.326;2023-04-26T02:33:59;8.63;;;3.97;;
79468;SDS011;68936;52.526;13.326;2023-04-26T02:36:27;7.80;;;3.72;;
79468;SDS011;68936;52.526;13.326;2023-04-26T02:38:53;6.97;;;3.60;;
79468;SDS011;68936;52.526;13.326;2023-04-26T02:41:22;6.30;;;3.10;;
79468;SDS011;68936;52.526;13.326;2023-04-26T02:43:51;6.55;;;3.25;;
79468;SDS011;68936;52.526;13.326;2023-04-26T02:46:17;6.50;;;3.60;;
79468;SDS011;68936;52.526;13.326;2023-04-26T02:48:43;8.45;;;3.83;;
79468;SDS011;68936;52.526;13.326;2023-04-26T02:51:10;5.22;;;3.15;;
79468;SDS011;68936;52.526;13.326;2023-04-26T02:53:36;6.85;;;3.58;;
79468;SDS011;68936;52.526;13.326;2023-04-26T02:56:02;5.68;;;3.40;;
79468;SDS011;68936;52.526;13.326;2023-04-26T02:58:28;6.90;;;3.45;;
79468;SDS011;68936;52.526;13.326;2023-04-26T03:00:55;7.22;;;3.20;;
79468;SDS011;68936;52.526;13.326;2023-04-26T03:03:22;7.75;;;3.20;;
79468;SDS011;68936;52.526;13.326;2023-04-26T03:05:48;6.57;;;3.38;;
79468;SDS011;68936;52.526;13.326;2023-04-26T03:08:14;6.35;;;3.30;;
79468;SDS011;68936;52.526;13.326;2023-04-26T03:10:40;5.97;;;3.10;;
79468;SDS011;68936;52.526;13.326;2023-04-26T03:13:06;6.80;;;3.08;;
79468;SDS011;68936;52.526;13.326;2023-04-26T03:15:32;7.43;;;3.40;;
79468;SDS011;68936;52.526;13.326;2023-04-26T03:17:58;7.60;;;3.30;;
79468;SDS011;68936;52.526;13.326;2023-04-26T03:20:25;5.78;;;3.50;;
79468;SDS011;68936;52.526;13.326;2023-04-26T03:22:51;6.30;;;3.30;;
79468;SDS011;68936;52.526;13.326;2023-04-26T03:25:19;6.57;;;3.70;;
79468;SDS011;68936;52.526;13.326;2023-04-26T03:27:47;7.05;;;3.03;;
79468;SDS011;68936;52.526;13.326;2023-04-26T03:30:13;7.32;;;3.90;;
79468;SDS011;68936;52.526;13.326;2023-04-26T03:32:40;6.45;;;3.45;;
79468;SDS011;68936;52.526;13.326;2023-04-26T03:35:06;6.05;;;3.10;;
79468;SDS011;68936;52.526;13.326;2023-04-26T03:37:32;4.88;;;3.10;;
79468;SDS011;68936;52.526;13.326;2023-04-26T03:40:03;6.28;;;3.33;;
79468;SDS011;68936;52.526;13.326;2023-04-26T03:42:32;7.57;;;3.72;;
79468;SDS011;68936;52.526;13.326;2023-04-26T03:45:01;6.15;;;3.22;;
79468;SDS011;68936;52.526;13.326;2023-04-26T03:47:28;8.15;;;3.05;;
79468;SDS011;68936;52.526;13.326;2023-04-26T03:49:54;6.03;;;3.33;;
79468;SDS011;68936;52.526;13.326;2023-04-26T03:52:20;4.35;;;2.80;;
79468;SDS011;68936;52.526;13.326;2023-04-26T03:54:48;6.35;;;3.25;;
79468;SDS011;68936;52.526;13.326;2023-04-26T03:57:14;6.30;;;2.97;;
79468;SDS011;68936;52.526;13.326;2023-04-26T03:59:40;4.97;;;2.90;;
79468;SDS011;68936;52.526;13.326;2023-04-26T04:02:06;6.45;;;3.30;;
79468;SDS011;68936;52.526;13.326;2023-04-26T04:04:35;10.98;;;3.63;;
79468;SDS011;68936;52.526;13.326;2023-04-26T04:07:01;6.53;;;3.08;;
79468;SDS011;68936;52.526;13.326;2023-04-26T04:09:30;6.45;;;2.92;;
79468;SDS011;68936;52.526;13.326;2023-04-26T04:11:58;7.00;;;3.03;;
79468;SDS011;68936;52.526;13.326;2023-04-26T04:14:26;5.30;;;3.15;;
79468;SDS011;68936;52.526;13.326;2023-04-26T04:16:53;6.22;;;3.22;;
79468;SDS011;68936;52.526;13.326;2023-04-26T04:19:19;5.20;;;3.08;;
79468;SDS011;68936;52.526;13.326;2023-04-26T04:21:47;6.93;;;2.97;;
79468;SDS011;68936;52.526;13.326;2023-04-26T04:24:13;6.32;;;3.15;;
79468;SDS011;68936;52.526;13.326;2023-04-26T04:26:42;6.22;;;2.75;;
79468;SDS011;68936;52.526;13.326;2023-04-26T04:29:07;5.32;;;2.92;;
79468;SDS011;68936;52.526;13.326;2023-04-26T04:31:34;6.05;;;3.28;;
79468;SDS011;68936;52.526;13.326;2023-04-26T04:34:00;6.10;;;3.47;;
79468;SDS011;68936;52.526;13.326;2023-04-26T04:36:29;5.90;;;3.33;;
79468;SDS011;68936;52.526;13.326;2023-04-26T04:38:55;5.57;;;2.80;;
79468;SDS011;68936;52.526;13.326;2023-04-26T04:41:23;5.75;;;3.03;;
79468;SDS011;68936;52.526;13.326;2023-04-26T04:43:49;6.40;;;3.30;;
79468;SDS011;68936;52.526;13.326;2023-04-26T04:46:15;6.75;;;3.13;;
79468;SDS011;68936;52.526;13.326;2023-04-26T04:48:41;6.30;;;3.17;;
79468;SDS011;68936;52.526;13.326;2023-04-26T04:51:08;4.10;;;2.90;;
79468;SDS011;68936;52.526;13.326;2023-04-26T04:53:36;6.53;;;3.08;;
79468;SDS011;68936;52.526;13.326;2023-04-26T04:56:02;5.20;;;2.65;;
79468;SDS011;68936;52.526;13.326;2023-04-26T04:58:29;7.60;;;3.00;;
79468;SDS011;68936;52.526;13.326;2023-04-26T05:00:55;6.28;;;2.72;;
79468;SDS011;68936;52.526;13.326;2023-04-26T05:03:22;3.90;;;2.33;;
79468;SDS011;68936;52.526;13.326;2023-04-26T05:05:50;4.88;;;3.10;;
79468;SDS011;68936;52.526;13.326;2023-04-26T05:08:16;4.38;;;2.70;;
79468;SDS011;68936;52.526;13.326;2023-04-26T05:10:44;5.35;;;2.53;;
79468;SDS011;68936;52.526;13.326;2023-04-26T05:13:10;5.68;;;2.35;;
79468;SDS011;68936;52.526;13.326;2023-04-26T05:15:37;6.63;;;3.10;;
79468;SDS011;68936;52.526;13.326;2023-04-26T05:18:03;6.13;;;2.95;;
79468;SDS011;68936;52.526;13.326;2023-04-26T05:20:29;5.93;;;2.90;;
79468;SDS011;68936;52.526;13.326;2023-04-26T05:22:56;5.13;;;2.70;;
79468;SDS011;68936;52.526;13.326;2023-04-26T05:25:22;5.43;;;3.22;;
79468;SDS011;68936;52.526;13.326;2023-04-26T05:27:48;5.43;;;2.53;;
79468;SDS011;68936;52.526;13.326;2023-04-26T05:30:14;4.57;;;2.72;;
79468;SDS011;68936;52.526;13.326;2023-04-26T05:32:43;3.55;;;2.45;;
79468;SDS011;68936;52.526;13.326;2023-04-26T05:35:09;4.72;;;2.67;;
79468;SDS011;68936;52.526;13.326;2023-04-26T05:37:35;4.47;;;2.80;;
79468;SDS011;68936;52.526;13.326;2023-04-26T05:40:04;5.40;;;2.67;;
79468;SDS011;68936;52.526;13.326;2023-04-26T05:42:30;5.47;;;2.70;;
79468;SDS011;68936;52.526;13.326;2023-04-26T05:44:57;6.90;;;2.80;;
79468;SDS011;68936;52.526;13.326;2023-04-26T05:47:23;6.03;;;2.85;;
79468;SDS011;68936;52.526;13.326;2023-04-26T05:49:49;5.20;;;3.10;;
79468;SDS011;68936;52.526;13.326;2023-04-26T05:52:15;6.00;;;3.33;;
79468;SDS011;68936;52.526;13.326;2023-04-26T05:54:41;4.85;;;2.63;;
79468;SDS011;68936;52.526;13.326;2023-04-26T05:57:07;7.38;;;3.40;;
79468;SDS011;68936;52.526;13.326;2023-04-26T05:59:36;7.13;;;2.85;;
79468;SDS011;68936;52.526;13.326;2023-04-26T06:02:02;6.95;;;3.30;;
79468;SDS011;68936;52.526;13.326;2023-04-26T06:04:30;5.47;;;2.63;;
79468;SDS011;68936;52.526;13.326;2023-04-26T06:06:56;4.40;;;2.50;;
79468;SDS011;68936;52.526;13.326;2023-04-26T06:09:24;5.50;;;2.63;;
79468;SDS011;68936;52.526;13.326;2023-04-26T06:11:53;6.40;;;2.72;;
79468;SDS011;68936;52.526;13.326;2023-04-26T06:14:19;12.75;;;3.80;;
79468;SDS011;68936;52.526;13.326;2023-04-26T06:16:45;5.78;;;2.78;;
79468;SDS011;68936;52.526;13.326;2023-04-26T06:19:14;5.13;;;2.67;;
79468;SDS011;68936;52.526;13.326;2023-04-26T06:21:40;6.55;;;2.95;;
79468;SDS011;68936;52.526;13.326;2023-04-26T06:24:06;5.80;;;2.60;;
79468;SDS011;68936;52.526;13.326;2023-04-26T06:26:32;8.38;;;2.95;;
79468;SDS011;68936;52.526;13.326;2023-04-26T06:29:00;8.38;;;2.97;;
79468;SDS011;68936;52.526;13.326;2023-04-26T06:31:27;5.07;;;2.67;;
79468;SDS011;68936;52.526;13.326;2023-04-26T06:33:53;10.20;;;3.00;;
79468;SDS011;68936;52.526;13.326;2023-04-26T06:36:19;6.05;;;2.60;;
79468;SDS011;68936;52.526;13.326;2023-04-26T06:38:48;6.57;;;2.58;;
79468;SDS011;68936;52.526;13.326;2023-04-26T06:41:14;6.22;;;2.38;;
79468;SDS011;68936;52.526;13.326;2023-04-26T06:43:43;8.15;;;2.53;;
79468;SDS011;68936;52.526;13.326;2023-04-26T06:46:09;8.73;;;2.70;;
79468;SDS011;68936;52.526;13.326;2023-04-26T06:48:35;7.85;;;2.75;;
79468;SDS011;68936;52.526;13.326;2023-04-26T06:51:06;9.02;;;2.90;;
79468;SDS011;68936;52.526;13.326;2023-04-26T06:53:35;7.40;;;3.10;;
79468;SDS011;68936;52.526;13.326;2023-04-26T06:56:01;7.57;;;2.88;;
79468;SDS011;68936;52.526;13.326;2023-04-26T06:58:29;6.05;;;2.70;;
79468;SDS011;68936;52.526;13.326;2023-04-26T07:01:00;7.32;;;2.70;;
79468;SDS011;68936;52.526;13.326;2023-04-26T07:03:26;6.88;;;2.85;;
79468;SDS011;68936;52.526;13.326;2023-04-26T07:05:53;5.18;;;2.72;;
79468;SDS011;68936;52.526;13.326;2023-04-26T07:08:20;7.10;;;3.10;;
79468;SDS011;68936;52.526;13.326;2023-04-26T07:10:46;5.63;;;2.67;;
79468;SDS011;68936;52.526;13.326;2023-04-26T07:13:15;6.97;;;2.15;;
79468;SDS011;68936;52.526;13.326;2023-04-26T07:15:41;7.03;;;2.67;;
79468;SDS011;68936;52.526;13.326;2023-04-26T07:18:07;6.78;;;2.20;;
79468;SDS011;68936;52.526;13.326;2023-04-26T07:20:33;8.38;;;2.80;;
79468;SDS011;68936;52.526;13.326;2023-04-26T07:23:01;8.48;;;2.90;;
79468;SDS011;68936;52.526;13.326;2023-04-26T07:25:27;6.25;;;2.50;;
79468;SDS011;68936;52.526;13.326;2023-04-26T07:27:53;6.68;;;2.35;;
79468;SDS011;68936;52.526;13.326;2023-04-26T07:30:22;6.55;;;2.63;;
79468;SDS011;68936;52.526;13.326;2023-04-26T07:32:50;5.28;;;2.65;;
79468;SDS011;68936;52.526;13.326;2023-04-26T07:35:17;8.27;;;2.70;;
79468;SDS011;68936;52.526;13.326;2023-04-26T07:37:43;4.97;;;2.50;;
79468;SDS011;68936;52.526;13.326;2023-04-26T07:40:09;4.18;;;2.47;;
79468;SDS011;68936;52.526;13.326;2023-04-26T07:42:39;4.65;;;2.70;;
79468;SDS011;68936;52.526;13.326;2023-04-26T07:45:05;5.65;;;2.85;;
79468;SDS011;68936;52.526;13.326;2023-04-26T07:47:32;6.97;;;2.72;;
79468;SDS011;68936;52.526;13.326;2023-04-26T07:50:00;4.78;;;2.75;;
79468;SDS011;68936;52.526;13.326;2023-04-26T07:52:29;5.32;;;2.53;;
79468;SDS011;68936;52.526;13.326;2023-04-26T07:54:55;6.00;;;2.63;;
79468;SDS011;68936;52.526;13.326;2023-04-26T07:57:21;5.03;;;2.38;;
79468;SDS011;68936;52.526;13.326;2023-04-26T07:59:47;5.75;;;2.10;;
79468;SDS011;68936;52.526;13.326;2023-04-26T08:02:13;4.05;;;1.98;;
79468;SDS011;68936;52.526;13.326;2023-04-26T08:04:45;5.60;;;2.72;;
79468;SDS011;68936;52.526;13.326;2023-04-26T08:07:14;4.78;;;1.92;;
79468;SDS011;68936;52.526;13.326;2023-04-26T08:09:40;4.22;;;2.50;;
79468;SDS011;68936;52.526;13.326;2023-04-26T08:12:11;4.00;;;1.98;;
79468;SDS011;68936;52.526;13.326;2023-04-26T08:14:37;4.63;;;2.30;;
79468;SDS011;68936;52.526;13.326;2023-04-26T08:17:03;6.35;;;2.17;;
79468;SDS011;68936;52.526;13.326;2023-04-26T08:19:30;4.28;;;2.15;;
79468;SDS011;68936;52.526;13.326;2023-04-26T08:21:57;4.75;;;2.50;;
79468;SDS011;68936;52.526;13.326;2023-04-26T08:24:23;5.40;;;2.10;;
79468;SDS011;68936;52.526;13.326;2023-04-26T08:26:49;3.70;;;2.22;;
79468;SDS011;68936;52.526;13.326;2023-04-26T08:29:15;4.45;;;2.38;;
79468;SDS011;68936;52.526;13.326;2023-04-26T08:31:42;4.22;;;2.40;;
79468;SDS011;68936;52.526;13.326;2023-04-26T08:34:08;4.07;;;2.30;;
79468;SDS011;68936;52.526;13.326;2023-04-26T08:36:37;5.10;;;2.45;;
79468;SDS011;68936;52.526;13.326;2023-04-26T08:39:04;8.18;;;2.15;;
79468;SDS011;68936;52.526;13.326;2023-04-26T08:41:34;5.47;;;2.38;;
79468;SDS011;68936;52.526;13.326;2023-04-26T08:44:02;4.43;;;2.30;;
79468;SDS011;68936;52.526;13.326;2023-04-26T08:46:32;4.10;;;2.60;;
79468;SDS011;68936;52.526;13.326;2023-04-26T08:49:04;2.78;;;1.77;;
79468;SDS011;68936;52.526;13.326;2023-04-26T08:51:32;4.63;;;2.28;;
79468;SDS011;68936;52.526;13.326;2023-04-26T08:53:58;6.32;;;2.22;;
79468;SDS011;68936;52.526;13.326;2023-04-26T08:56:24;4.53;;;1.80;;
79468;SDS011;68936;52.526;13.326;2023-04-26T08:58:51;3.97;;;2.00;;
79468;SDS011;68936;52.526;13.326;2023-04-26T09:01:18;5.82;;;2.55;;
79468;SDS011;68936;52.526;13.326;2023-04-26T09:03:47;5.80;;;2.25;;
79468;SDS011;68936;52.526;13.326;2023-04-26T09:06:15;4.43;;;2.60;;
79468;SDS011;68936;52.526;13.326;2023-04-26T09:08:42;4.68;;;2.20;;
79468;SDS011;68936;52.526;13.326;2023-04-26T09:11:08;6.75;;;2.33;;
79468;SDS011;68936;52.526;13.326;2023-04-26T09:13:34;3.88;;;2.65;;
79468;SDS011;68936;52.526;13.326;2023-04-26T09:16:00;3.92;;;2.10;;
79468;SDS011;68936;52.526;13.326;2023-04-26T09:18:26;4.70;;;2.08;;
79468;SDS011;68936;52.526;13.326;2023-04-26T09:21:02;4.20;;;1.85;;
79468;SDS011;68936;52.526;13.326;2023-04-26T09:23:28;3.30;;;1.95;;
79468;SDS011;68936;52.526;13.326;2023-04-26T09:25:54;4.88;;;2.30;;
79468;SDS011;68936;52.526;13.326;2023-04-26T09:28:21;4.28;;;1.98;;
79468;SDS011;68936;52.526;13.326;2023-04-26T09:30:47;3.92;;;1.92;;
79468;SDS011;68936;52.526;13.326;2023-04-26T09:33:13;3.63;;;1.75;;
79468;SDS011;68936;52.526;13.326;2023-04-26T09:35:40;3.90;;;2.20;;
79468;SDS011;68936;52.526;13.326;2023-04-26T09:38:12;4.32;;;2.45;;
79468;SDS011;68936;52.526;13.326;2023-04-26T09:40:39;3.72;;;2.15;;
79468;SDS011;68936;52.526;13.326;2023-04-26T09:45:32;3.35;;;1.95;;
79468;SDS011;68936;52.526;13.326;2023-04-26T09:48:11;3.97;;;2.13;;
79468;SDS011;68936;52.526;13.326;2023-04-26T09:50:38;4.35;;;2.17;;
79468;SDS011;68936;52.526;13.326;2023-04-26T09:53:04;3.25;;;1.85;;
79468;SDS011;68936;52.526;13.326;2023-04-26T09:55:30;3.92;;;1.92;;
79468;SDS011;68936;52.526;13.326;2023-04-26T09:57:57;2.85;;;1.90;;
79468;SDS011;68936;52.526;13.326;2023-04-26T10:00:26;3.78;;;2.30;;
79468;SDS011;68936;52.526;13.326;2023-04-26T10:02:55;3.38;;;2.13;;
79468;SDS011;68936;52.526;13.326;2023-04-26T10:05:21;5.07;;;2.15;;
79468;SDS011;68936;52.526;13.326;2023-04-26T10:07:48;4.72;;;2.40;;
79468;SDS011;68936;52.526;13.326;2023-04-26T10:10:15;4.57;;;2.50;;
79468;SDS011;68936;52.526;13.326;2023-04-26T10:12:42;3.58;;;2.10;;
79468;SDS011;68936;52.526;13.326;2023-04-26T10:15:09;3.30;;;1.80;;
79468;SDS011;68936;52.526;13.326;2023-04-26T10:17:38;4.30;;;2.17;;
79468;SDS011;68936;52.526;13.326;2023-04-26T10:20:05;5.13;;;2.00;;
79468;SDS011;68936;52.526;13.326;2023-04-26T10:22:34;2.75;;;1.85;;
79468;SDS011;68936;52.526;13.326;2023-04-26T10:25:02;3.15;;;1.98;;
79468;SDS011;68936;52.526;13.326;2023-04-26T10:30:06;3.08;;;1.80;;
79468;SDS011;68936;52.526;13.326;2023-04-26T10:32:35;2.78;;;1.85;;
79468;SDS011;68936;52.526;13.326;2023-04-26T10:35:19;4.18;;;2.28;;
79468;SDS011;68936;52.526;13.326;2023-04-26T10:43:29;3.90;;;1.98;;
79468;SDS011;68936;52.526;13.326;2023-04-26T10:45:48;3.03;;;1.90;;
79468;SDS011;68936;52.526;13.326;2023-04-26T10:58:48;3.05;;;1.65;;
79468;SDS011;68936;52.526;13.326;2023-04-26T11:01:15;2.13;;;1.60;;
79468;SDS011;68936;52.526;13.326;2023-04-26T11:04:27;4.57;;;2.30;;
79468;SDS011;68936;52.526;13.326;2023-04-26T11:09:32;3.40;;;1.98;;
79468;SDS011;68936;52.526;13.326;2023-04-26T11:12:00;2.65;;;1.95;;
79468;SDS011;68936;52.526;13.326;2023-04-26T11:14:28;4.45;;;2.00;;
79468;SDS011;68936;52.526;13.326;2023-04-26T11:16:55;4.35;;;2.20;;
79468;SDS011;68936;52.526;13.326;2023-04-26T11:19:26;2.72;;;1.73;;
79468;SDS011;68936;52.526;13.326;2023-04-26T11:21:52;3.15;;;1.95;;
79468;SDS011;68936;52.526;13.326;2023-04-26T11:24:23;3.20;;;1.83;;
79468;SDS011;68936;52.526;13.326;2023-04-26T11:26:50;3.40;;;2.22;;
79468;SDS011;68936;52.526;13.326;2023-04-26T11:29:19;3.65;;;1.90;;
79468;SDS011;68936;52.526;13.326;2023-04-26T11:31:55;3.30;;;1.80;;
79468;SDS011;68936;52.526;13.326;2023-04-26T11:34:30;3.80;;;2.05;;
79468;SDS011;68936;52.526;13.326;2023-04-26T11:39:22;3.17;;;1.90;;
79468;SDS011;68936;52.526;13.326;2023-04-26T11:41:51;3.55;;;2.10;;
79468;SDS011;68936;52.526;13.326;2023-04-26T11:44:21;3.25;;;1.60;;
79468;SDS011;68936;52.526;13.326;2023-04-26T11:46:47;3.75;;;2.38;;
79468;SDS011;68936;52.526;13.326;2023-04-26T11:49:14;3.65;;;2.13;;
79468;SDS011;68936;52.526;13.326;2023-04-26T11:51:43;3.20;;;1.75;;
79468;SDS011;68936;52.526;13.326;2023-04-26T11:54:09;3.50;;;1.90;;
79468;SDS011;68936;52.526;13.326;2023-04-26T11:56:36;3.10;;;2.10;;
79468;SDS011;68936;52.526;13.326;2023-04-26T11:59:05;3.83;;;1.73;;
79468;SDS011;68936;52.526;13.326;2023-04-26T12:01:31;3.75;;;2.10;;
79468;SDS011;68936;52.526;13.326;2023-04-26T12:03:58;3.42;;;2.05;;
79468;SDS011;68936;52.526;13.326;2023-04-26T12:06:45;3.47;;;1.90;;
79468;SDS011;68936;52.526;13.326;2023-04-26T12:09:10;2.83;;;1.80;;
79468;SDS011;68936;52.526;13.326;2023-04-26T12:11:37;2.92;;;2.00;;
79468;SDS011;68936;52.526;13.326;2023-04-26T12:14:03;4.18;;;1.88;;
79468;SDS011;68936;52.526;13.326;2023-04-26T12:16:29;3.40;;;2.13;;
79468;SDS011;68936;52.526;13.326;2023-04-26T12:18:55;2.55;;;1.77;;
79468;SDS011;68936;52.526;13.326;2023-04-26T12:21:22;3.10;;;1.90;;
79468;SDS011;68936;52.526;13.326;2023-04-26T12:23:54;2.35;;;1.80;;
79468;SDS011;68936;52.526;13.326;2023-04-26T12:26:20;3.83;;;2.05;;
79468;SDS011;68936;52.526;13.326;2023-04-26T12:28:46;2.97;;;1.70;;
79468;SDS011;68936;52.526;13.326;2023-04-26T12:31:13;2.67;;;1.67;;
79468;SDS011;68936;52.526;13.326;2023-04-26T12:33:39;3.83;;;2.05;;
79468;SDS011;68936;52.526;13.326;2023-04-26T12:36:08;3.58;;;2.00;;
79468;SDS011;68936;52.526;13.326;2023-04-26T12:38:37;3.75;;;2.05;;
79468;SDS011;68936;52.526;13.326;2023-04-26T12:41:04;3.00;;;2.20;;
79468;SDS011;68936;52.526;13.326;2023-04-26T12:43:30;6.07;;;1.80;;
79468;SDS011;68936;52.526;13.326;2023-04-26T12:45:56;3.17;;;1.83;;
79468;SDS011;68936;52.526;13.326;2023-04-26T12:48:22;4.20;;;2.10;;
79468;SDS011;68936;52.526;13.326;2023-04-26T12:50:50;2.70;;;1.75;;
79468;SDS011;68936;52.526;13.326;2023-04-26T12:53:16;2.42;;;1.80;;
79468;SDS011;68936;52.526;13.326;2023-04-26T12:55:42;4.03;;;1.73;;
79468;SDS011;68936;52.526;13.326;2023-04-26T12:58:11;3.10;;;2.00;;
79468;SDS011;68936;52.526;13.326;2023-04-26T13:00:37;3.03;;;1.65;;
79468;SDS011;68936;52.526;13.326;2023-04-26T13:03:03;3.25;;;1.90;;
79468;SDS011;68936;52.526;13.326;2023-04-26T13:05:31;2.75;;;2.05;;
79468;SDS011;68936;52.526;13.326;2023-04-26T13:07:57;5.53;;;2.33;;
79468;SDS011;68936;52.526;13.326;2023-04-26T13:10:25;3.90;;;2.15;;
79468;SDS011;68936;52.526;13.326;2023-04-26T13:12:52;2.90;;;1.77;;
79468;SDS011;68936;52.526;13.326;2023-04-26T13:15:18;3.97;;;1.85;;
79468;SDS011;68936;52.526;13.326;2023-04-26T13:17:45;4.00;;;1.90;;
79468;SDS011;68936;52.526;13.326;2023-04-26T13:20:11;3.10;;;2.10;;
79468;SDS011;68936;52.526;13.326;2023-04-26T13:22:39;4.13;;;2.10;;
79468;SDS011;68936;52.526;13.326;2023-04-26T13:25:07;3.03;;;2.05;;
79468;SDS011;68936;52.526;13.326;2023-04-26T13:27:36;3.40;;;1.83;;
79468;SDS011;68936;52.526;13.326;2023-04-26T13:30:02;3.30;;;2.20;;
79468;SDS011;68936;52.526;13.326;2023-04-26T13:32:28;2.90;;;1.85;;
79468;SDS011;68936;52.526;13.326;2023-04-26T13:34:57;2.55;;;1.83;;
79468;SDS011;68936;52.526;13.326;2023-04-26T13:37:23;4.05;;;2.30;;
79468;SDS011;68936;52.526;13.326;2023-04-26T13:39:49;3.72;;;1.92;;
79468;SDS011;68936;52.526;13.326;2023-04-26T13:42:17;3.40;;;2.13;;
79468;SDS011;68936;52.526;13.326;2023-04-26T13:44:43;3.33;;;2.00;;
79468;SDS011;68936;52.526;13.326;2023-04-26T13:47:12;2.83;;;1.73;;
79468;SDS011;68936;52.526;13.326;2023-04-26T13:49:38;5.03;;;2.08;;
79468;SDS011;68936;52.526;13.326;2023-04-26T13:52:05;3.90;;;2.05;;
79468;SDS011;68936;52.526;13.326;2023-04-26T13:54:31;3.30;;;2.13;;
79468;SDS011;68936;52.526;13.326;2023-04-26T13:56:57;3.88;;;1.80;;
79468;SDS011;68936;52.526;13.326;2023-04-26T13:59:26;3.50;;;2.13;;
79468;SDS011;68936;52.526;13.326;2023-04-26T14:01:52;3.67;;;2.42;;
79468;SDS011;68936;52.526;13.326;2023-04-26T14:04:18;2.85;;;2.00;;
79468;SDS011;68936;52.526;13.326;2023-04-26T14:06:45;6.40;;;3.33;;
79468;SDS011;68936;52.526;13.326;2023-04-26T14:09:11;5.85;;;2.03;;
79468;SDS011;68936;52.526;13.326;2023-04-26T14:11:37;4.70;;;1.92;;
79468;SDS011;68936;52.526;13.326;2023-04-26T14:14:03;8.55;;;1.90;;
79468;SDS011;68936;52.526;13.326;2023-04-26T14:16:31;5.15;;;1.80;;
79468;SDS011;68936;52.526;13.326;2023-04-26T14:18:57;5.18;;;1.50;;
79468;SDS011;68936;52.526;13.326;2023-04-26T14:21:24;11.10;;;2.00;;
79468;SDS011;68936;52.526;13.326;2023-04-26T14:23:53;4.50;;;1.67;;
79468;SDS011;68936;52.526;13.326;2023-04-26T14:26:19;6.30;;;1.98;;
79468;SDS011;68936;52.526;13.326;2023-04-26T14:28:45;6.50;;;2.05;;
79468;SDS011;68936;52.526;13.326;2023-04-26T14:31:12;5.82;;;1.70;;
79468;SDS011;68936;52.526;13.326;2023-04-26T14:33:38;9.30;;;1.60;;
79468;SDS011;68936;52.526;13.326;2023-04-26T14:36:04;5.72;;;1.75;;
79468;SDS011;68936;52.526;13.326;2023-04-26T14:38:30;4.97;;;1.67;;
79468;SDS011;68936;52.526;13.326;2023-04-26T14:40:56;5.88;;;1.67;;
79468;SDS011;68936;52.526;13.326;2023-04-26T14:43:25;5.55;;;1.85;;
79468;SDS011;68936;52.526;13.326;2023-04-26T14:45:53;6.15;;;2.08;;
79468;SDS011;68936;52.526;13.326;2023-04-26T14:48:19;4.65;;;1.83;;
79468;SDS011;68936;52.526;13.326;2023-04-26T14:50:45;3.97;;;1.80;;
79468;SDS011;68936;52.526;13.326;2023-04-26T14:53:14;7.18;;;2.08;;
79468;SDS011;68936;52.526;13.326;2023-04-26T14:55:40;4.50;;;1.35;;
79468;SDS011;68936;52.526;13.326;2023-04-26T14:58:06;7.90;;;2.45;;
79468;SDS011;68936;52.526;13.326;2023-04-26T15:00:32;6.93;;;1.80;;